createdAt,value
2022-11-24T00:00:06.634Z,30.83
2022-11-24T00:00:38.359Z,25.40
2022-11-24T00:01:16.408Z,28.33
2022-11-24T00:01:48.307Z,32.70
2022-11-24T00:02:20.303Z,38.75
2022-11-24T00:02:52.902Z,38.15
2022-11-24T00:03:24.858Z,36.38
2022-11-24T00:04:05.406Z,36.85
2022-11-24T00:04:37.386Z,34.40
2022-11-24T00:05:09.250Z,29.67
2022-11-24T00:05:41.093Z,38.25
2022-11-24T00:06:15.755Z,36.53
2022-11-24T00:06:47.620Z,31.95
2022-11-24T00:07:19.564Z,32.75
2022-11-24T00:07:51.483Z,34.38
2022-11-24T00:08:23.343Z,32.95
2022-11-24T00:08:55.444Z,34.00
2022-11-24T00:09:27.328Z,28.83
2022-11-24T00:09:59.130Z,31.20
2022-11-24T00:10:30.972Z,29.12
2022-11-24T00:11:24.175Z,25.02
2022-11-24T00:11:56.333Z,19.65
2022-11-24T00:12:28.164Z,21.52
2022-11-24T00:13:00.010Z,22.65
2022-11-24T00:13:33.486Z,23.58
2022-11-24T00:14:06.547Z,20.88
2022-11-24T00:14:38.385Z,23.55
2022-11-24T00:15:10.411Z,19.48
2022-11-24T00:15:42.230Z,20.60
2022-11-24T00:16:19.723Z,19.58
2022-11-24T00:16:51.672Z,18.80
2022-11-24T00:17:24.300Z,18.23
2022-11-24T00:17:56.543Z,19.58
2022-11-24T00:18:28.365Z,21.37
2022-11-24T00:19:02.002Z,17.55
2022-11-24T00:19:33.957Z,18.08
2022-11-24T00:20:06.402Z,18.35
2022-11-24T00:20:38.252Z,17.77
2022-11-24T00:21:10.182Z,17.77
2022-11-24T00:21:42.535Z,17.70
2022-11-24T00:22:14.359Z,19.60
2022-11-24T00:22:46.503Z,20.62
2022-11-24T00:23:18.294Z,18.95
2022-11-24T00:23:51.234Z,17.85
2022-11-24T00:24:23.057Z,17.17
2022-11-24T00:24:54.875Z,17.25
2022-11-24T00:25:26.733Z,22.48
2022-11-24T00:26:16.442Z,17.40
2022-11-24T00:26:48.530Z,15.98
2022-11-24T00:27:20.420Z,15.68
2022-11-24T00:27:52.815Z,18.77
2022-11-24T00:28:24.804Z,20.95
2022-11-24T00:29:03.349Z,17.10
2022-11-24T00:29:35.165Z,20.23
2022-11-24T00:30:07.519Z,17.80
2022-11-24T00:30:39.456Z,23.87
2022-11-24T00:31:20.963Z,17.92
2022-11-24T00:31:52.927Z,19.45
2022-11-24T00:32:24.810Z,21.02
2022-11-24T00:32:56.914Z,19.98
2022-11-24T00:33:28.782Z,16.58
2022-11-24T00:34:02.695Z,19.90
2022-11-24T00:34:34.901Z,19.33
2022-11-24T00:35:07.729Z,18.50
2022-11-24T00:35:39.639Z,19.33
2022-11-24T00:36:11.547Z,22.00
2022-11-24T00:36:43.650Z,20.00
2022-11-24T00:37:15.503Z,17.77
2022-11-24T00:37:47.426Z,17.98
2022-11-24T00:38:19.572Z,17.90
2022-11-24T00:38:55.707Z,17.48
2022-11-24T00:39:27.559Z,19.02
2022-11-24T00:39:59.369Z,16.83
2022-11-24T00:40:34.993Z,15.65
2022-11-24T00:41:07.352Z,18.08
2022-11-24T00:41:39.592Z,17.60
2022-11-24T00:42:11.436Z,17.42
2022-11-24T00:42:43.238Z,21.20
2022-11-24T00:43:15.187Z,22.90
2022-11-24T00:43:47.316Z,18.85
2022-11-24T00:44:19.134Z,17.50
2022-11-24T00:44:50.952Z,17.80
2022-11-24T00:45:22.768Z,18.30
2022-11-24T00:45:54.748Z,18.05
2022-11-24T00:46:27.976Z,18.62
2022-11-24T00:47:00.074Z,19.55
2022-11-24T00:47:33.001Z,20.52
2022-11-24T00:48:04.936Z,20.62
2022-11-24T00:48:36.869Z,19.27
2022-11-24T00:49:09.407Z,18.23
2022-11-24T00:49:41.248Z,21.52
2022-11-24T00:50:13.129Z,21.30
2022-11-24T00:50:44.941Z,20.67
2022-11-24T00:51:18.557Z,20.52
2022-11-24T00:51:50.466Z,19.75
2022-11-24T00:52:22.279Z,23.30
2022-11-24T00:52:54.098Z,20.83
2022-11-24T00:53:26.388Z,21.80
2022-11-24T00:53:59.497Z,24.45
2022-11-24T00:54:31.915Z,23.58
2022-11-24T00:55:04.189Z,23.35
2022-11-24T00:55:36.026Z,24.60
2022-11-24T00:56:08.746Z,21.70
2022-11-24T00:56:40.631Z,21.73
2022-11-24T00:57:12.510Z,22.48
2022-11-24T00:57:44.324Z,18.58
2022-11-24T00:58:16.156Z,21.37
2022-11-24T00:58:47.978Z,19.58
2022-11-24T00:59:19.835Z,18.20
2022-11-24T00:59:51.947Z,21.00
2022-11-24T01:00:23.806Z,15.27
2022-11-24T01:01:01.381Z,20.90
2022-11-24T01:01:33.369Z,18.92
2022-11-24T01:02:05.293Z,15.52
2022-11-24T01:02:37.353Z,16.58
2022-11-24T01:03:09.504Z,17.55
2022-11-24T01:03:42.462Z,20.15
2022-11-24T01:04:14.996Z,17.67
2022-11-24T01:04:46.796Z,18.60
2022-11-24T01:05:19.271Z,16.67
2022-11-24T01:05:51.145Z,18.65
2022-11-24T01:06:25.199Z,20.50
2022-11-24T01:06:57.072Z,16.85
2022-11-24T01:07:28.922Z,16.05
2022-11-24T01:08:00.756Z,17.90
2022-11-24T01:08:33.316Z,15.88
2022-11-24T01:09:05.295Z,18.12
2022-11-24T01:09:37.818Z,17.85
2022-11-24T01:10:09.917Z,23.00
2022-11-24T01:10:42.239Z,25.52
2022-11-24T01:11:16.319Z,24.87
2022-11-24T01:12:04.016Z,21.48
2022-11-24T01:12:35.927Z,18.02
2022-11-24T01:13:07.794Z,17.87
2022-11-24T01:13:41.077Z,20.67
2022-11-24T01:14:12.892Z,21.25
2022-11-24T01:14:44.753Z,21.58
2022-11-24T01:15:16.659Z,22.27
2022-11-24T01:15:48.848Z,21.52
2022-11-24T01:16:31.521Z,22.73
2022-11-24T01:17:03.685Z,20.73
2022-11-24T01:17:35.543Z,16.83
2022-11-24T01:18:07.397Z,21.02
2022-11-24T01:18:39.357Z,18.42
2022-11-24T01:19:11.177Z,20.15
2022-11-24T01:19:43.033Z,23.45
2022-11-24T01:20:15.172Z,20.05
2022-11-24T01:20:46.989Z,18.83
2022-11-24T01:21:20.206Z,23.30
2022-11-24T01:21:52.396Z,22.70
2022-11-24T01:22:26.443Z,23.65
2022-11-24T01:22:58.283Z,20.17
2022-11-24T01:23:30.216Z,20.70
2022-11-24T01:24:02.455Z,18.60
2022-11-24T01:24:34.407Z,20.62
2022-11-24T01:25:07.218Z,18.35
2022-11-24T01:25:40.096Z,20.17
2022-11-24T01:26:15.007Z,22.35
2022-11-24T01:26:47.190Z,18.33
2022-11-24T01:27:19.031Z,21.80
2022-11-24T01:27:50.932Z,22.87
2022-11-24T01:28:22.791Z,20.70
2022-11-24T01:28:56.500Z,20.98
2022-11-24T01:29:28.483Z,22.37
2022-11-24T01:30:00.468Z,21.42
2022-11-24T01:30:32.695Z,19.73
2022-11-24T01:31:07.171Z,20.58
2022-11-24T01:31:39.406Z,21.92
2022-11-24T01:32:11.545Z,19.83
2022-11-24T01:32:43.381Z,20.30
2022-11-24T01:33:15.235Z,20.35
2022-11-24T01:33:47.075Z,23.05
2022-11-24T01:34:19.185Z,20.85
2022-11-24T01:34:51.054Z,18.90
2022-11-24T01:35:22.896Z,20.15
2022-11-24T01:35:54.723Z,23.25
2022-11-24T01:36:26.666Z,23.30
2022-11-24T01:36:58.464Z,21.67
2022-11-24T01:37:30.671Z,21.45
2022-11-24T01:38:02.488Z,19.20
2022-11-24T01:38:34.314Z,21.23
2022-11-24T01:39:06.167Z,22.05
2022-11-24T01:39:38.000Z,21.10
2022-11-24T01:40:10.665Z,21.42
2022-11-24T01:40:42.564Z,23.42
2022-11-24T01:41:17.960Z,24.37
2022-11-24T01:41:49.851Z,20.65
2022-11-24T01:42:21.730Z,21.77
2022-11-24T01:42:54.059Z,22.35
2022-11-24T01:43:25.918Z,25.15
2022-11-24T01:43:57.854Z,21.10
2022-11-24T01:44:31.288Z,19.80
2022-11-24T01:45:40.613Z,24.42
2022-11-24T01:46:31.085Z,18.87
2022-11-24T01:47:13.554Z,20.65
2022-11-24T01:47:45.448Z,20.17
2022-11-24T01:48:35.065Z,21.23
2022-11-24T01:49:33.860Z,19.23
2022-11-24T01:50:13.335Z,20.27
2022-11-24T01:50:46.426Z,19.50
2022-11-24T01:51:23.812Z,20.85
2022-11-24T01:52:01.417Z,21.67
2022-11-24T01:52:51.553Z,20.00
2022-11-24T01:53:24.506Z,20.85
2022-11-24T01:54:20.261Z,20.75
2022-11-24T01:54:59.602Z,17.45
2022-11-24T01:55:36.514Z,20.23
2022-11-24T01:56:09.438Z,21.05
2022-11-24T01:56:45.806Z,19.48
2022-11-24T01:57:23.705Z,20.65
2022-11-24T01:58:05.209Z,21.35
2022-11-24T01:58:39.867Z,20.92
2022-11-24T01:59:14.465Z,21.35
2022-11-24T01:59:48.474Z,23.20
2022-11-24T02:00:21.730Z,18.52
2022-11-24T02:00:54.334Z,22.45
2022-11-24T02:01:26.390Z,17.92
2022-11-24T02:01:58.478Z,19.10
2022-11-24T02:02:30.715Z,19.98
2022-11-24T02:03:02.754Z,19.20
2022-11-24T02:03:38.263Z,20.45
2022-11-24T02:04:17.729Z,18.30
2022-11-24T02:04:51.249Z,19.70
2022-11-24T02:05:26.190Z,19.48
2022-11-24T02:06:08.080Z,20.52
2022-11-24T02:06:42.710Z,19.05
2022-11-24T02:07:15.065Z,20.25
2022-11-24T02:07:48.020Z,20.85
2022-11-24T02:08:49.155Z,17.33
2022-11-24T02:09:26.214Z,17.70
2022-11-24T02:10:03.960Z,18.73
2022-11-24T02:10:36.966Z,18.52
2022-11-24T02:11:08.891Z,19.20
2022-11-24T02:11:41.733Z,22.85
2022-11-24T02:12:13.663Z,19.77
2022-11-24T02:12:47.713Z,20.60
2022-11-24T02:13:19.936Z,21.40
2022-11-24T02:13:54.248Z,18.27
2022-11-24T02:14:27.523Z,18.10
2022-11-24T02:14:59.758Z,16.58
2022-11-24T02:15:32.457Z,19.35
2022-11-24T02:16:07.657Z,19.00
2022-11-24T02:16:41.609Z,21.62
2022-11-24T02:17:13.479Z,19.48
2022-11-24T02:17:45.471Z,19.08
2022-11-24T02:18:17.304Z,18.73
2022-11-24T02:18:49.475Z,19.55
2022-11-24T02:19:27.059Z,22.98
2022-11-24T02:20:01.910Z,19.73
2022-11-24T02:20:34.197Z,23.98
2022-11-24T02:21:07.379Z,19.90
2022-11-24T02:21:39.250Z,21.25
2022-11-24T02:22:31.239Z,20.37
2022-11-24T02:23:31.740Z,17.92
2022-11-24T02:24:30.319Z,21.37
2022-11-24T02:25:10.030Z,20.67
2022-11-24T02:25:50.118Z,19.15
2022-11-24T02:26:30.982Z,22.25
2022-11-24T02:27:03.785Z,21.40
2022-11-24T02:27:36.357Z,19.48
2022-11-24T02:28:13.632Z,21.25
2022-11-24T02:28:46.214Z,20.23
2022-11-24T02:29:19.859Z,25.75
2022-11-24T02:29:52.147Z,18.85
2022-11-24T02:30:24.604Z,22.48
2022-11-24T02:30:58.577Z,21.25
2022-11-24T02:31:30.717Z,20.73
2022-11-24T02:32:06.782Z,23.65
2022-11-24T02:32:41.394Z,21.15
2022-11-24T02:33:13.828Z,20.95
2022-11-24T02:33:45.765Z,19.52
2022-11-24T02:34:17.635Z,25.20
2022-11-24T02:34:49.479Z,21.55
2022-11-24T02:35:21.502Z,22.85
2022-11-24T02:35:53.933Z,21.62
2022-11-24T02:36:25.839Z,25.70
2022-11-24T02:36:57.696Z,20.62
2022-11-24T02:37:29.606Z,25.77
2022-11-24T02:38:01.431Z,24.75
2022-11-24T02:38:35.401Z,26.73
2022-11-24T02:39:15.101Z,21.95
2022-11-24T02:39:46.914Z,24.23
2022-11-24T02:40:25.105Z,26.23
2022-11-24T02:41:00.551Z,20.58
2022-11-24T02:41:32.442Z,21.12
2022-11-24T02:42:08.997Z,21.05
2022-11-24T02:42:44.981Z,21.87
2022-11-24T02:43:23.349Z,22.92
2022-11-24T02:43:58.408Z,21.70
2022-11-24T02:44:37.961Z,22.55
2022-11-24T02:45:11.971Z,20.70
2022-11-24T02:45:43.850Z,21.27
2022-11-24T02:46:16.109Z,22.73
2022-11-24T02:46:48.006Z,19.90
2022-11-24T02:47:19.846Z,23.15
2022-11-24T02:47:51.711Z,22.20
2022-11-24T02:48:23.911Z,20.23
2022-11-24T02:48:55.788Z,24.27
2022-11-24T02:49:27.591Z,21.52
2022-11-24T02:49:59.431Z,23.65
2022-11-24T02:50:31.258Z,23.35
2022-11-24T02:51:03.687Z,21.23
2022-11-24T02:51:35.820Z,22.13
2022-11-24T02:52:08.458Z,22.80
2022-11-24T02:52:40.285Z,24.83
2022-11-24T02:53:12.176Z,22.50
2022-11-24T02:53:45.006Z,22.80
2022-11-24T02:54:16.820Z,25.75
2022-11-24T02:54:48.699Z,21.02
2022-11-24T02:55:20.583Z,22.85
2022-11-24T02:55:53.159Z,21.95
2022-11-24T02:56:26.778Z,21.05
2022-11-24T02:56:59.348Z,22.65
2022-11-24T02:57:31.389Z,19.95
2022-11-24T02:58:03.280Z,20.95
2022-11-24T02:58:35.234Z,22.20
2022-11-24T02:59:07.070Z,20.70
2022-11-24T02:59:38.980Z,22.65
2022-11-24T03:00:11.681Z,22.50
2022-11-24T03:00:43.526Z,21.15
2022-11-24T03:01:15.460Z,21.62
2022-11-24T03:01:47.437Z,22.87
2022-11-24T03:02:19.654Z,23.90
2022-11-24T03:02:51.645Z,21.08
2022-11-24T03:03:24.202Z,22.00
2022-11-24T03:03:56.037Z,20.67
2022-11-24T03:04:27.837Z,22.77
2022-11-24T03:04:59.698Z,20.92
2022-11-24T03:05:31.512Z,20.60
2022-11-24T03:06:03.374Z,25.00
2022-11-24T03:06:35.206Z,25.25
2022-11-24T03:07:07.273Z,23.30
2022-11-24T03:07:39.535Z,27.52
2022-11-24T03:08:12.960Z,24.83
2022-11-24T03:08:44.852Z,22.55
2022-11-24T03:09:16.675Z,24.02
2022-11-24T03:09:48.485Z,24.20
2022-11-24T03:10:20.496Z,24.27
2022-11-24T03:10:52.381Z,24.37
2022-11-24T03:11:24.256Z,26.27
2022-11-24T03:11:56.145Z,21.12
2022-11-24T03:12:28.026Z,19.73
2022-11-24T03:13:00.178Z,21.40
2022-11-24T03:13:31.996Z,26.92
2022-11-24T03:14:04.861Z,25.40
2022-11-24T03:14:36.943Z,23.23
2022-11-24T03:15:09.333Z,22.67
2022-11-24T03:15:41.338Z,25.55
2022-11-24T03:16:13.225Z,22.48
2022-11-24T03:16:45.075Z,26.92
2022-11-24T03:17:16.976Z,22.67
2022-11-24T03:17:48.786Z,22.65
2022-11-24T03:18:20.911Z,23.40
2022-11-24T03:18:53.486Z,22.70
2022-11-24T03:19:25.334Z,23.58
2022-11-24T03:20:03.006Z,26.58
2022-11-24T03:20:36.314Z,24.73
2022-11-24T03:21:08.208Z,24.90
2022-11-24T03:21:40.050Z,24.17
2022-11-24T03:22:13.484Z,24.15
2022-11-24T03:22:45.321Z,23.20
2022-11-24T03:23:17.188Z,21.30
2022-11-24T03:23:49.574Z,26.15
2022-11-24T03:24:21.520Z,24.67
2022-11-24T03:24:53.407Z,23.30
2022-11-24T03:25:25.360Z,25.00
2022-11-24T03:26:08.038Z,25.65
2022-11-24T03:26:39.960Z,22.85
2022-11-24T03:27:11.787Z,23.27
2022-11-24T03:27:44.038Z,22.80
2022-11-24T03:28:16.091Z,22.17
2022-11-24T03:28:48.027Z,24.00
2022-11-24T03:29:20.194Z,23.02
2022-11-24T03:29:52.054Z,25.37
2022-11-24T03:30:23.977Z,30.90
2022-11-24T03:30:55.829Z,25.33
2022-11-24T03:31:27.961Z,29.12
2022-11-24T03:32:00.275Z,23.30
2022-11-24T03:32:32.081Z,24.80
2022-11-24T03:33:05.093Z,24.55
2022-11-24T03:33:37.763Z,24.10
2022-11-24T03:34:09.983Z,25.33
2022-11-24T03:34:42.102Z,26.02
2022-11-24T03:35:13.948Z,24.50
2022-11-24T03:35:46.071Z,30.92
2022-11-24T03:36:18.706Z,24.73
2022-11-24T03:36:50.790Z,22.75
2022-11-24T03:37:22.662Z,25.52
2022-11-24T03:37:54.502Z,25.45
2022-11-24T03:38:26.327Z,25.58
2022-11-24T03:38:58.171Z,27.58
2022-11-24T03:39:30.063Z,26.00
2022-11-24T03:40:02.176Z,25.27
2022-11-24T03:40:34.059Z,27.42
2022-11-24T03:41:05.943Z,29.50
2022-11-24T03:41:37.842Z,26.80
2022-11-24T03:42:09.761Z,26.37
2022-11-24T03:42:41.608Z,26.83
2022-11-24T03:43:13.438Z,27.37
2022-11-24T03:43:45.250Z,30.00
2022-11-24T03:44:17.996Z,26.33
2022-11-24T03:44:49.968Z,31.80
2022-11-24T03:45:45.047Z,29.02
2022-11-24T03:46:14.443Z,29.20
2022-11-24T03:46:46.404Z,27.70
2022-11-24T03:47:18.257Z,30.73
2022-11-24T03:47:51.800Z,34.17
2022-11-24T03:48:23.609Z,37.30
2022-11-24T03:48:55.433Z,35.63
2022-11-24T03:49:27.315Z,34.90
2022-11-24T03:49:59.172Z,38.45
2022-11-24T03:50:31.287Z,40.80
2022-11-24T03:51:03.353Z,38.75
2022-11-24T03:51:35.197Z,41.28
2022-11-24T03:52:08.360Z,44.97
2022-11-24T03:52:40.350Z,43.17
2022-11-24T03:53:12.257Z,46.85
2022-11-24T03:53:44.083Z,43.42
2022-11-24T03:54:15.960Z,46.53
2022-11-24T03:54:47.860Z,40.47
2022-11-24T03:55:19.687Z,43.00
2022-11-24T03:55:52.084Z,44.08
2022-11-24T03:56:23.899Z,46.90
2022-11-24T03:56:56.017Z,49.17
2022-11-24T03:57:27.814Z,50.35
2022-11-24T03:57:59.693Z,48.15
2022-11-24T03:58:31.567Z,51.60
2022-11-24T03:59:03.499Z,49.70
2022-11-24T03:59:35.328Z,50.17
2022-11-24T04:00:08.072Z,47.00
2022-11-24T04:00:40.465Z,46.90
2022-11-24T04:01:12.348Z,46.70
2022-11-24T04:01:44.237Z,52.40
2022-11-24T04:02:16.726Z,54.03
2022-11-24T04:02:48.781Z,51.60
2022-11-24T04:03:21.166Z,48.75
2022-11-24T04:03:53.039Z,48.55
2022-11-24T04:04:24.882Z,53.45
2022-11-24T04:04:56.802Z,52.10
2022-11-24T04:05:28.675Z,55.20
2022-11-24T04:06:00.931Z,48.00
2022-11-24T04:06:32.787Z,50.30
2022-11-24T04:07:04.595Z,49.67
2022-11-24T04:07:36.520Z,50.75
2022-11-24T04:08:08.751Z,52.13
2022-11-24T04:08:40.593Z,46.53
2022-11-24T04:09:12.425Z,48.17
2022-11-24T04:09:45.338Z,51.53
2022-11-24T04:10:17.227Z,50.88
2022-11-24T04:10:51.303Z,49.42
2022-11-24T04:11:42.267Z,49.88
2022-11-24T04:12:32.678Z,49.53
2022-11-24T04:13:10.860Z,47.40
2022-11-24T04:13:42.724Z,46.50
2022-11-24T04:14:14.725Z,45.38
2022-11-24T04:14:46.605Z,52.40
2022-11-24T04:15:19.661Z,46.50
2022-11-24T04:15:52.016Z,56.22
2022-11-24T04:16:24.268Z,50.20
2022-11-24T04:16:56.175Z,47.83
2022-11-24T04:17:28.456Z,52.15
2022-11-24T04:18:00.276Z,49.78
2022-11-24T04:18:32.238Z,48.55
2022-11-24T04:19:04.107Z,51.45
2022-11-24T04:19:35.929Z,53.20
2022-11-24T04:20:08.734Z,53.40
2022-11-24T04:20:41.412Z,51.55
2022-11-24T04:21:13.271Z,50.50
2022-11-24T04:21:45.418Z,54.92
2022-11-24T04:22:17.906Z,51.83
2022-11-24T04:22:51.842Z,52.62
2022-11-24T04:23:23.685Z,48.87
2022-11-24T04:23:55.522Z,49.50
2022-11-24T04:24:27.367Z,46.80
2022-11-24T04:24:59.175Z,52.55
2022-11-24T04:25:31.151Z,55.15
2022-11-24T04:26:02.971Z,47.75
2022-11-24T04:26:34.940Z,49.33
2022-11-24T04:27:07.012Z,46.90
2022-11-24T04:27:39.330Z,52.03
2022-11-24T04:28:11.221Z,49.80
2022-11-24T04:28:43.041Z,49.50
2022-11-24T04:29:14.874Z,51.58
2022-11-24T04:29:46.742Z,48.47
2022-11-24T04:30:19.519Z,45.28
2022-11-24T04:30:51.464Z,50.78
2022-11-24T04:31:23.396Z,46.40
2022-11-24T04:31:55.270Z,48.60
2022-11-24T04:32:27.915Z,47.80
2022-11-24T04:32:59.852Z,44.38
2022-11-24T04:33:31.935Z,40.80
2022-11-24T04:34:04.048Z,44.38
2022-11-24T04:34:36.670Z,45.30
2022-11-24T04:35:08.829Z,46.72
2022-11-24T04:35:40.752Z,46.35
2022-11-24T04:36:12.633Z,46.75
2022-11-24T04:36:44.500Z,46.40
2022-11-24T04:37:16.445Z,45.88
2022-11-24T04:37:48.610Z,39.55
2022-11-24T04:39:24.540Z,45.45
2022-11-24T04:39:25.984Z,44.95
2022-11-24T04:39:58.029Z,45.05
2022-11-24T04:40:30.226Z,45.22
2022-11-24T04:41:03.417Z,46.08
2022-11-24T04:41:35.264Z,43.33
2022-11-24T04:42:07.100Z,44.75
2022-11-24T04:42:38.955Z,44.05
2022-11-24T04:43:12.083Z,41.85
2022-11-24T04:43:43.937Z,44.33
2022-11-24T04:44:15.832Z,44.08
2022-11-24T04:44:47.726Z,40.97
2022-11-24T04:45:19.545Z,43.53
2022-11-24T04:45:51.412Z,49.58
2022-11-24T04:46:23.257Z,43.55
2022-11-24T04:46:55.215Z,50.08
2022-11-24T04:47:27.758Z,44.42
2022-11-24T04:47:59.612Z,44.83
2022-11-24T04:48:31.753Z,42.10
2022-11-24T04:49:03.781Z,46.55
2022-11-24T04:49:35.607Z,48.03
2022-11-24T04:50:09.093Z,46.40
2022-11-24T04:50:41.020Z,44.65
2022-11-24T04:51:15.139Z,42.53
2022-11-24T04:51:47.168Z,46.72
2022-11-24T04:52:20.318Z,50.15
2022-11-24T04:52:52.639Z,41.92
2022-11-24T04:53:24.450Z,42.20
2022-11-24T04:53:56.597Z,43.80
2022-11-24T04:54:28.422Z,48.58
2022-11-24T04:55:00.315Z,47.08
2022-11-24T04:55:32.158Z,42.35
2022-11-24T04:56:07.291Z,43.50
2022-11-24T04:56:40.208Z,41.22
2022-11-24T04:57:32.281Z,46.28
2022-11-24T04:58:04.127Z,46.60
2022-11-24T04:58:36.222Z,44.15
2022-11-24T04:59:11.878Z,42.85
2022-11-24T04:59:44.190Z,46.17
2022-11-24T05:00:16.832Z,47.65
2022-11-24T05:00:48.916Z,48.40
2022-11-24T05:01:20.785Z,45.67
2022-11-24T05:01:52.725Z,43.15
2022-11-24T05:02:24.665Z,43.25
2022-11-24T05:02:56.768Z,43.28
2022-11-24T05:03:28.598Z,45.42
2022-11-24T05:04:00.459Z,44.67
2022-11-24T05:04:33.001Z,42.60
2022-11-24T05:05:06.612Z,44.33
2022-11-24T05:05:38.469Z,42.15
2022-11-24T05:06:10.298Z,47.03
2022-11-24T05:06:42.299Z,44.33
2022-11-24T05:07:18.882Z,49.33
2022-11-24T05:07:51.323Z,48.40
2022-11-24T05:08:23.209Z,43.08
2022-11-24T05:08:55.082Z,46.90
2022-11-24T05:09:47.910Z,45.97
2022-11-24T05:10:37.406Z,44.80
2022-11-24T05:11:09.272Z,40.38
2022-11-24T05:11:41.101Z,43.55
2022-11-24T05:12:12.900Z,47.13
2022-11-24T05:12:49.951Z,45.97
2022-11-24T05:13:23.147Z,50.20
2022-11-24T05:13:55.052Z,44.92
2022-11-24T05:14:28.358Z,45.67
2022-11-24T05:15:01.914Z,42.50
2022-11-24T05:15:34.194Z,42.42
2022-11-24T05:16:06.360Z,42.78
2022-11-24T05:16:38.379Z,43.67
2022-11-24T05:17:10.279Z,44.85
2022-11-24T05:17:42.113Z,41.37
2022-11-24T05:18:17.474Z,45.92
2022-11-24T05:18:49.390Z,46.33
2022-11-24T05:19:21.191Z,42.13
2022-11-24T05:19:53.031Z,44.05
2022-11-24T05:20:25.567Z,41.67
2022-11-24T05:20:58.780Z,43.72
2022-11-24T05:21:30.589Z,45.17
2022-11-24T05:22:02.410Z,44.50
2022-11-24T05:22:34.512Z,46.58
2022-11-24T05:23:08.345Z,40.92
2022-11-24T05:23:40.231Z,44.70
2022-11-24T05:24:12.100Z,45.72
2022-11-24T05:24:43.897Z,48.55
2022-11-24T05:25:15.837Z,45.05
2022-11-24T05:25:48.090Z,46.22
2022-11-24T05:26:20.503Z,45.40
2022-11-24T05:26:52.365Z,48.42
2022-11-24T05:27:24.361Z,41.22
2022-11-24T05:28:02.811Z,47.05
2022-11-24T05:28:34.700Z,46.90
2022-11-24T05:29:06.590Z,50.22
2022-11-24T05:29:38.472Z,45.65
2022-11-24T05:30:11.537Z,51.35
2022-11-24T05:30:44.216Z,52.15
2022-11-24T05:31:16.127Z,48.92
2022-11-24T05:31:48.430Z,51.03
2022-11-24T05:32:20.327Z,45.97
2022-11-24T05:32:52.187Z,52.70
2022-11-24T05:33:24.149Z,52.13
2022-11-24T05:33:56.046Z,48.25
2022-11-24T05:34:28.372Z,56.15
2022-11-24T05:35:02.200Z,53.05
2022-11-24T05:35:35.559Z,54.28
2022-11-24T05:36:07.815Z,52.35
2022-11-24T05:36:54.739Z,51.85
2022-11-24T05:37:28.420Z,50.97
2022-11-24T05:38:00.214Z,51.97
2022-11-24T05:38:32.944Z,52.40
2022-11-24T05:39:04.822Z,57.03
2022-11-24T05:39:36.981Z,62.45
2022-11-24T05:40:09.179Z,54.47
2022-11-24T05:40:41.592Z,55.28
2022-11-24T05:41:13.378Z,61.72
2022-11-24T05:41:45.531Z,59.63
2022-11-24T05:42:35.895Z,59.78
2022-11-24T05:43:15.542Z,58.58
2022-11-24T05:43:47.368Z,58.58
2022-11-24T05:44:19.211Z,62.13
2022-11-24T05:44:51.798Z,62.83
2022-11-24T05:45:23.825Z,64.50
2022-11-24T05:45:59.623Z,67.37
2022-11-24T05:46:31.491Z,62.10
2022-11-24T05:47:03.430Z,67.78
2022-11-24T05:47:36.003Z,65.50
2022-11-24T05:48:10.669Z,66.57
2022-11-24T05:48:42.527Z,65.87
2022-11-24T05:49:14.414Z,65.28
2022-11-24T05:49:46.381Z,66.10
2022-11-24T05:50:20.695Z,69.12
2022-11-24T05:50:58.847Z,63.58
2022-11-24T05:51:30.894Z,68.22
2022-11-24T05:52:02.749Z,65.55
2022-11-24T05:52:35.146Z,65.45
2022-11-24T05:53:10.700Z,66.37
2022-11-24T05:53:42.828Z,64.90
2022-11-24T05:54:14.788Z,64.70
2022-11-24T05:54:46.613Z,68.35
2022-11-24T05:55:19.616Z,70.00
2022-11-24T05:55:51.537Z,76.35
2022-11-24T05:56:23.434Z,66.47
2022-11-24T05:56:56.396Z,68.05
2022-11-24T05:57:28.457Z,69.57
2022-11-24T05:58:02.371Z,73.25
2022-11-24T05:58:34.247Z,65.05
2022-11-24T05:59:09.799Z,71.32
2022-11-24T05:59:42.033Z,77.50
2022-11-24T06:00:15.124Z,72.50
2022-11-24T06:00:47.674Z,76.60
2022-11-24T06:01:19.850Z,74.25
2022-11-24T06:01:51.802Z,69.45
2022-11-24T06:02:23.783Z,74.03
2022-11-24T06:02:58.081Z,72.53
2022-11-24T06:03:29.954Z,72.68
2022-11-24T06:04:01.843Z,66.82
2022-11-24T06:04:33.957Z,75.37
2022-11-24T06:05:06.169Z,68.97
2022-11-24T06:05:38.315Z,67.72
2022-11-24T06:06:10.852Z,71.12
2022-11-24T06:06:42.883Z,73.75
2022-11-24T06:07:15.105Z,74.50
2022-11-24T06:07:47.087Z,72.55
2022-11-24T06:08:18.960Z,69.40
2022-11-24T06:08:50.827Z,65.53
2022-11-24T06:09:22.823Z,73.87
2022-11-24T06:09:54.672Z,67.65
2022-11-24T06:10:26.902Z,71.32
2022-11-24T06:11:20.515Z,69.43
2022-11-24T06:11:52.682Z,70.75
2022-11-24T06:12:24.518Z,66.87
2022-11-24T06:12:56.592Z,69.22
2022-11-24T06:13:28.489Z,69.40
2022-11-24T06:14:00.528Z,67.28
2022-11-24T06:14:32.946Z,71.90
2022-11-24T06:15:05.431Z,74.03
2022-11-24T06:15:37.811Z,71.85
2022-11-24T06:16:10.760Z,71.50
2022-11-24T06:16:42.723Z,70.75
2022-11-24T06:17:14.893Z,70.90
2022-11-24T06:17:53.789Z,67.75
2022-11-24T06:18:25.616Z,71.65
2022-11-24T06:18:57.472Z,72.00
2022-11-24T06:19:29.352Z,67.28
2022-11-24T06:20:01.186Z,73.50
2022-11-24T06:20:33.298Z,70.87
2022-11-24T06:21:11.222Z,66.32
2022-11-24T06:21:43.549Z,70.57
2022-11-24T06:22:16.014Z,76.03
2022-11-24T06:22:48.397Z,68.80
2022-11-24T06:23:20.215Z,72.82
2022-11-24T06:23:52.083Z,71.15
2022-11-24T06:24:24.079Z,71.20
2022-11-24T06:24:55.894Z,67.97
2022-11-24T06:25:29.224Z,62.00
2022-11-24T06:26:01.709Z,68.80
2022-11-24T06:26:33.699Z,66.75
2022-11-24T06:27:05.533Z,63.78
2022-11-24T06:27:37.705Z,68.37
2022-11-24T06:28:09.526Z,74.25
2022-11-24T06:28:41.683Z,72.93
2022-11-24T06:29:13.580Z,73.30
2022-11-24T06:29:46.295Z,74.07
2022-11-24T06:30:18.239Z,67.70
2022-11-24T06:30:50.078Z,72.22
2022-11-24T06:31:21.947Z,69.93
2022-11-24T06:31:53.863Z,68.32
2022-11-24T06:32:25.729Z,68.55
2022-11-24T06:32:57.896Z,72.82
2022-11-24T06:33:34.565Z,69.35
2022-11-24T06:34:07.895Z,69.25
2022-11-24T06:34:39.850Z,69.82
2022-11-24T06:35:13.235Z,70.43
2022-11-24T06:35:45.158Z,70.03
2022-11-24T06:36:17.033Z,72.75
2022-11-24T06:36:48.904Z,71.78
2022-11-24T06:37:20.802Z,71.18
2022-11-24T06:37:52.719Z,65.65
2022-11-24T06:38:24.864Z,70.57
2022-11-24T06:38:56.707Z,67.95
2022-11-24T06:39:28.576Z,67.30
2022-11-24T06:40:00.467Z,68.25
2022-11-24T06:40:32.251Z,71.40
2022-11-24T06:41:07.740Z,67.10
2022-11-24T06:41:39.595Z,73.25
2022-11-24T06:42:18.607Z,66.55
2022-11-24T06:42:51.716Z,73.07
2022-11-24T06:43:23.568Z,66.53
2022-11-24T06:43:55.699Z,68.82
2022-11-24T06:44:30.981Z,67.10
2022-11-24T06:45:08.571Z,69.70
2022-11-24T06:45:41.135Z,61.37
2022-11-24T06:46:13.435Z,66.47
2022-11-24T06:46:45.447Z,69.93
2022-11-24T06:47:17.247Z,69.43
2022-11-24T06:47:49.135Z,69.12
2022-11-24T06:48:20.990Z,73.28
2022-11-24T06:48:53.040Z,70.87
2022-11-24T06:49:25.240Z,77.62
2022-11-24T06:49:57.161Z,71.60
2022-11-24T06:50:33.402Z,75.10
2022-11-24T06:51:08.104Z,76.50
2022-11-24T06:51:40.145Z,77.60
2022-11-24T06:52:12.076Z,73.93
2022-11-24T06:52:43.959Z,75.80
2022-11-24T06:53:15.938Z,74.95
2022-11-24T06:53:47.805Z,75.90
2022-11-24T06:54:21.214Z,70.68
2022-11-24T06:54:53.732Z,72.30
2022-11-24T06:55:25.605Z,70.87
2022-11-24T06:56:01.974Z,72.90
2022-11-24T06:56:34.338Z,70.10
2022-11-24T06:57:06.695Z,77.05
2022-11-24T06:57:39.075Z,65.82
2022-11-24T06:58:10.940Z,72.93
2022-11-24T06:58:45.200Z,66.50
2022-11-24T06:59:20.615Z,67.80
2022-11-24T06:59:52.443Z,64.72
2022-11-24T07:00:25.029Z,64.80
2022-11-24T07:00:57.155Z,63.85
2022-11-24T07:01:30.281Z,63.65
2022-11-24T07:02:02.468Z,68.95
2022-11-24T07:02:34.701Z,62.97
2022-11-24T07:03:06.699Z,69.68
2022-11-24T07:03:38.546Z,67.30
2022-11-24T07:04:11.395Z,67.57
2022-11-24T07:04:43.271Z,62.17
2022-11-24T07:05:15.083Z,63.05
2022-11-24T07:05:47.350Z,66.47
2022-11-24T07:06:20.649Z,64.47
2022-11-24T07:06:52.489Z,61.78
2022-11-24T07:07:24.382Z,64.18
2022-11-24T07:07:56.495Z,61.88
2022-11-24T07:08:28.395Z,59.45
2022-11-24T07:09:00.487Z,66.03